sensor_id;sensor_type;location;lat;lon;timestamp;P1;durP1;ratioP1;P2;durP2;ratioP2
45490;SDS011;31237;45.586;13.782;2023-12-20T00:01:32;6.13;;;4.15;;
45490;SDS011;31237;45.586;13.782;2023-12-20T00:03:58;7.47;;;4.60;;
45490;SDS011;31237;45.586;13.782;2023-12-20T00:06:24;7.88;;;4.72;;
45490;SDS011;31237;45.586;13.782;2023-12-20T00:08:49;10.52;;;5.00;;
45490;SDS011;31237;45.586;13.782;2023-12-20T00:11:15;7.95;;;4.50;;
45490;SDS011;31237;45.586;13.782;2023-12-20T00:13:41;7.82;;;4.53;;
45490;SDS011;31237;45.586;13.782;2023-12-20T00:16:06;6.65;;;4.18;;
45490;SDS011;31237;45.586;13.782;2023-12-20T00:18:32;6.57;;;4.28;;
45490;SDS011;31237;45.586;13.782;2023-12-20T00:20:58;9.00;;;4.55;;
45490;SDS011;31237;45.586;13.782;2023-12-20T00:23:23;6.90;;;4.40;;
45490;SDS011;31237;45.586;13.782;2023-12-20T00:25:49;7.03;;;4.85;;
45490;SDS011;31237;45.586;13.782;2023-12-20T00:28:15;7.80;;;4.90;;
45490;SDS011;31237;45.586;13.782;2023-12-20T00:30:40;7.70;;;4.32;;
45490;SDS011;31237;45.586;13.782;2023-12-20T00:33:06;9.07;;;4.47;;
45490;SDS011;31237;45.586;13.782;2023-12-20T00:35:32;6.30;;;4.07;;
45490;SDS011;31237;45.586;13.782;2023-12-20T00:37:58;7.10;;;4.03;;
45490;SDS011;31237;45.586;13.782;2023-12-20T00:40:24;8.05;;;4.40;;
45490;SDS011;31237;45.586;13.782;2023-12-20T00:42:50;9.43;;;4.35;;
45490;SDS011;31237;45.586;13.782;2023-12-20T00:45:15;8.05;;;3.95;;
45490;SDS011;31237;45.586;13.782;2023-12-20T00:47:41;6.20;;;3.78;;
45490;SDS011;31237;45.586;13.782;2023-12-20T00:50:07;7.18;;;4.03;;
45490;SDS011;31237;45.586;13.782;2023-12-20T00:52:34;5.85;;;3.47;;
45490;SDS011;31237;45.586;13.782;2023-12-20T00:54:59;6.47;;;3.85;;
45490;SDS011;31237;45.586;13.782;2023-12-20T00:57:25;7.22;;;3.35;;
45490;SDS011;31237;45.586;13.782;2023-12-20T00:59:51;5.00;;;2.83;;
45490;SDS011;31237;45.586;13.782;2023-12-20T01:02:16;4.97;;;2.72;;
45490;SDS011;31237;45.586;13.782;2023-12-20T01:04:42;4.93;;;2.53;;
45490;SDS011;31237;45.586;13.782;2023-12-20T01:07:08;4.85;;;2.70;;
45490;SDS011;31237;45.586;13.782;2023-12-20T01:09:34;6.45;;;2.50;;
45490;SDS011;31237;45.586;13.782;2023-12-20T01:12:00;4.45;;;2.55;;
45490;SDS011;31237;45.586;13.782;2023-12-20T01:14:25;5.03;;;2.42;;
45490;SDS011;31237;45.586;13.782;2023-12-20T01:16:51;4.97;;;2.10;;
45490;SDS011;31237;45.586;13.782;2023-12-20T01:19:17;6.53;;;3.08;;
45490;SDS011;31237;45.586;13.782;2023-12-20T01:21:42;7.15;;;2.95;;
45490;SDS011;31237;45.586;13.782;2023-12-20T01:24:09;4.80;;;2.80;;
45490;SDS011;31237;45.586;13.782;2023-12-20T01:26:35;3.65;;;2.17;;
45490;SDS011;31237;45.586;13.782;2023-12-20T01:29:00;3.90;;;2.22;;
45490;SDS011;31237;45.586;13.782;2023-12-20T01:31:26;4.25;;;2.33;;
45490;SDS011;31237;45.586;13.782;2023-12-20T01:33:52;3.17;;;2.00;;
45490;SDS011;31237;45.586;13.782;2023-12-20T01:36:18;3.50;;;1.85;;
45490;SDS011;31237;45.586;13.782;2023-12-20T01:38:44;3.88;;;2.10;;
45490;SDS011;31237;45.586;13.782;2023-12-20T01:41:10;4.72;;;2.22;;
45490;SDS011;31237;45.586;13.782;2023-12-20T01:43:36;5.03;;;2.60;;
45490;SDS011;31237;45.586;13.782;2023-12-20T01:46:01;5.50;;;2.75;;
45490;SDS011;31237;45.586;13.782;2023-12-20T01:48:28;3.97;;;2.30;;
45490;SDS011;31237;45.586;13.782;2023-12-20T01:50:54;3.65;;;2.03;;
45490;SDS011;31237;45.586;13.782;2023-12-20T01:53:21;4.03;;;2.13;;
45490;SDS011;31237;45.586;13.782;2023-12-20T01:55:50;4.03;;;2.40;;
45490;SDS011;31237;45.586;13.782;2023-12-20T01:58:19;3.90;;;2.20;;
45490;SDS011;31237;45.586;13.782;2023-12-20T02:00:45;3.97;;;2.30;;
45490;SDS011;31237;45.586;13.782;2023-12-20T02:03:11;3.28;;;1.95;;
45490;SDS011;31237;45.586;13.782;2023-12-20T02:05:37;3.60;;;2.28;;
45490;SDS011;31237;45.586;13.782;2023-12-20T02:08:04;5.07;;;2.47;;
45490;SDS011;31237;45.586;13.782;2023-12-20T02:10:30;4.63;;;2.40;;
45490;SDS011;31237;45.586;13.782;2023-12-20T02:12:56;3.35;;;2.30;;
45490;SDS011;31237;45.586;13.782;2023-12-20T02:15:22;3.60;;;2.17;;
45490;SDS011;31237;45.586;13.782;2023-12-20T02:17:48;3.45;;;1.98;;
45490;SDS011;31237;45.586;13.782;2023-12-20T02:20:14;4.57;;;2.28;;
45490;SDS011;31237;45.586;13.782;2023-12-20T02:22:40;5.07;;;2.60;;
45490;SDS011;31237;45.586;13.782;2023-12-20T02:25:06;5.80;;;2.97;;
45490;SDS011;31237;45.586;13.782;2023-12-20T02:27:32;6.07;;;3.22;;
45490;SDS011;31237;45.586;13.782;2023-12-20T02:29:58;4.60;;;2.70;;
45490;SDS011;31237;45.586;13.782;2023-12-20T02:32:24;5.28;;;2.60;;
45490;SDS011;31237;45.586;13.782;2023-12-20T02:34:53;4.38;;;2.47;;
45490;SDS011;31237;45.586;13.782;2023-12-20T02:37:19;5.00;;;2.67;;
45490;SDS011;31237;45.586;13.782;2023-12-20T02:39:45;4.85;;;2.50;;
45490;SDS011;31237;45.586;13.782;2023-12-20T02:42:11;3.50;;;2.00;;
45490;SDS011;31237;45.586;13.782;2023-12-20T02:44:36;3.92;;;2.20;;
45490;SDS011;31237;45.586;13.782;2023-12-20T02:47:02;5.43;;;2.40;;
45490;SDS011;31237;45.586;13.782;2023-12-20T02:49:28;4.18;;;2.10;;
45490;SDS011;31237;45.586;13.782;2023-12-20T02:51:54;3.90;;;2.20;;
45490;SDS011;31237;45.586;13.782;2023-12-20T02:54:20;3.60;;;2.10;;
45490;SDS011;31237;45.586;13.782;2023-12-20T02:56:46;3.65;;;2.15;;
45490;SDS011;31237;45.586;13.782;2023-12-20T02:59:12;4.05;;;2.47;;
45490;SDS011;31237;45.586;13.782;2023-12-20T03:01:44;4.63;;;2.53;;
45490;SDS011;31237;45.586;13.782;2023-12-20T03:04:11;5.53;;;2.83;;
45490;SDS011;31237;45.586;13.782;2023-12-20T03:06:37;5.35;;;2.95;;
45490;SDS011;31237;45.586;13.782;2023-12-20T03:09:03;4.05;;;2.40;;
45490;SDS011;31237;45.586;13.782;2023-12-20T03:11:30;6.57;;;3.35;;
45490;SDS011;31237;45.586;13.782;2023-12-20T03:13:56;4.90;;;2.55;;
45490;SDS011;31237;45.586;13.782;2023-12-20T03:16:22;4.80;;;3.13;;
45490;SDS011;31237;45.586;13.782;2023-12-20T03:18:48;4.88;;;3.00;;
45490;SDS011;31237;45.586;13.782;2023-12-20T03:21:13;5.68;;;3.38;;
45490;SDS011;31237;45.586;13.782;2023-12-20T03:23:39;5.65;;;3.45;;
45490;SDS011;31237;45.586;13.782;2023-12-20T03:26:08;4.82;;;2.75;;
45490;SDS011;31237;45.586;13.782;2023-12-20T03:28:36;7.45;;;4.13;;
45490;SDS011;31237;45.586;13.782;2023-12-20T03:31:02;6.40;;;3.90;;
45490;SDS011;31237;45.586;13.782;2023-12-20T03:33:28;6.45;;;4.00;;
45490;SDS011;31237;45.586;13.782;2023-12-20T03:35:54;7.85;;;4.00;;
45490;SDS011;31237;45.586;13.782;2023-12-20T03:38:20;7.35;;;4.22;;
45490;SDS011;31237;45.586;13.782;2023-12-20T03:40:48;8.23;;;4.03;;
45490;SDS011;31237;45.586;13.782;2023-12-20T03:43:15;7.85;;;4.00;;
45490;SDS011;31237;45.586;13.782;2023-12-20T03:45:41;8.73;;;4.50;;
45490;SDS011;31237;45.586;13.782;2023-12-20T03:48:08;8.20;;;5.35;;
45490;SDS011;31237;45.586;13.782;2023-12-20T03:50:34;8.57;;;6.03;;
45490;SDS011;31237;45.586;13.782;2023-12-20T03:52:59;12.43;;;6.80;;
45490;SDS011;31237;45.586;13.782;2023-12-20T03:55:25;11.15;;;6.63;;
45490;SDS011;31237;45.586;13.782;2023-12-20T03:57:51;13.02;;;6.85;;
45490;SDS011;31237;45.586;13.782;2023-12-20T04:00:17;12.02;;;7.25;;
45490;SDS011;31237;45.586;13.782;2023-12-20T04:02:43;14.88;;;7.13;;
45490;SDS011;31237;45.586;13.782;2023-12-20T04:05:09;7.40;;;4.65;;
45490;SDS011;31237;45.586;13.782;2023-12-20T04:07:35;7.93;;;5.20;;
45490;SDS011;31237;45.586;13.782;2023-12-20T04:10:02;10.43;;;5.32;;
45490;SDS011;31237;45.586;13.782;2023-12-20T04:12:28;8.95;;;5.20;;
45490;SDS011;31237;45.586;13.782;2023-12-20T04:14:54;7.10;;;4.32;;
45490;SDS011;31237;45.586;13.782;2023-12-20T04:17:20;9.77;;;5.55;;
45490;SDS011;31237;45.586;13.782;2023-12-20T04:19:48;7.50;;;4.80;;
45490;SDS011;31237;45.586;13.782;2023-12-20T04:22:14;10.60;;;6.03;;
45490;SDS011;31237;45.586;13.782;2023-12-20T04:24:39;10.98;;;5.95;;
45490;SDS011;31237;45.586;13.782;2023-12-20T04:27:07;10.05;;;5.85;;
45490;SDS011;31237;45.586;13.782;2023-12-20T04:29:33;8.82;;;6.18;;
45490;SDS011;31237;45.586;13.782;2023-12-20T04:31:59;8.65;;;6.00;;
45490;SDS011;31237;45.586;13.782;2023-12-20T04:34:25;9.75;;;6.47;;
45490;SDS011;31237;45.586;13.782;2023-12-20T04:36:51;10.30;;;5.72;;
45490;SDS011;31237;45.586;13.782;2023-12-20T04:39:17;8.10;;;5.55;;
45490;SDS011;31237;45.586;13.782;2023-12-20T04:41:42;9.48;;;6.43;;
45490;SDS011;31237;45.586;13.782;2023-12-20T04:44:08;12.02;;;6.40;;
45490;SDS011;31237;45.586;13.782;2023-12-20T04:46:34;12.43;;;6.57;;
45490;SDS011;31237;45.586;13.782;2023-12-20T04:49:00;10.93;;;6.90;;
45490;SDS011;31237;45.586;13.782;2023-12-20T04:51:26;10.38;;;7.05;;
45490;SDS011;31237;45.586;13.782;2023-12-20T04:53:52;37.53;;;19.58;;
45490;SDS011;31237;45.586;13.782;2023-12-20T04:56:18;97.97;;;46.35;;
45490;SDS011;31237;45.586;13.782;2023-12-20T04:58:43;67.68;;;32.70;;
45490;SDS011;31237;45.586;13.782;2023-12-20T05:01:09;39.45;;;20.63;;
45490;SDS011;31237;45.586;13.782;2023-12-20T05:03:35;19.52;;;11.93;;
45490;SDS011;31237;45.586;13.782;2023-12-20T05:06:01;16.83;;;9.90;;
45490;SDS011;31237;45.586;13.782;2023-12-20T05:08:26;11.60;;;7.55;;
45490;SDS011;31237;45.586;13.782;2023-12-20T05:10:55;11.85;;;8.43;;
45490;SDS011;31237;45.586;13.782;2023-12-20T05:13:21;10.13;;;7.38;;
45490;SDS011;31237;45.586;13.782;2023-12-20T05:15:47;9.18;;;6.07;;
45490;SDS011;31237;45.586;13.782;2023-12-20T05:18:13;7.30;;;5.15;;
45490;SDS011;31237;45.586;13.782;2023-12-20T05:20:39;6.80;;;4.60;;
45490;SDS011;31237;45.586;13.782;2023-12-20T05:23:05;9.82;;;5.75;;
45490;SDS011;31237;45.586;13.782;2023-12-20T05:25:31;8.50;;;5.28;;
45490;SDS011;31237;45.586;13.782;2023-12-20T05:27:57;9.10;;;5.93;;
45490;SDS011;31237;45.586;13.782;2023-12-20T05:30:23;14.60;;;8.25;;
45490;SDS011;31237;45.586;13.782;2023-12-20T05:32:49;14.10;;;9.27;;
45490;SDS011;31237;45.586;13.782;2023-12-20T05:35:14;15.57;;;9.80;;
45490;SDS011;31237;45.586;13.782;2023-12-20T05:37:41;14.40;;;8.93;;
45490;SDS011;31237;45.586;13.782;2023-12-20T05:40:07;14.45;;;8.27;;
45490;SDS011;31237;45.586;13.782;2023-12-20T05:42:36;14.75;;;7.90;;
45490;SDS011;31237;45.586;13.782;2023-12-20T05:45:03;12.75;;;9.25;;
45490;SDS011;31237;45.586;13.782;2023-12-20T05:47:29;14.50;;;9.20;;
45490;SDS011;31237;45.586;13.782;2023-12-20T05:49:54;10.35;;;7.85;;
45490;SDS011;31237;45.586;13.782;2023-12-20T05:52:20;9.38;;;6.80;;
45490;SDS011;31237;45.586;13.782;2023-12-20T05:54:46;7.18;;;4.78;;
45490;SDS011;31237;45.586;13.782;2023-12-20T05:57:12;6.60;;;3.95;;
45490;SDS011;31237;45.586;13.782;2023-12-20T05:59:38;5.78;;;3.80;;
45490;SDS011;31237;45.586;13.782;2023-12-20T06:02:04;5.93;;;3.45;;
45490;SDS011;31237;45.586;13.782;2023-12-20T06:04:30;5.97;;;3.47;;
45490;SDS011;31237;45.586;13.782;2023-12-20T06:06:56;4.63;;;2.95;;
45490;SDS011;31237;45.586;13.782;2023-12-20T06:09:21;4.68;;;2.85;;
45490;SDS011;31237;45.586;13.782;2023-12-20T06:11:47;5.43;;;3.30;;
45490;SDS011;31237;45.586;13.782;2023-12-20T06:14:13;5.25;;;3.42;;
45490;SDS011;31237;45.586;13.782;2023-12-20T06:16:38;5.43;;;3.38;;
45490;SDS011;31237;45.586;13.782;2023-12-20T06:19:04;5.03;;;3.40;;
45490;SDS011;31237;45.586;13.782;2023-12-20T06:21:30;5.95;;;3.92;;
45490;SDS011;31237;45.586;13.782;2023-12-20T06:23:56;5.47;;;3.50;;
45490;SDS011;31237;45.586;13.782;2023-12-20T06:26:23;5.90;;;3.40;;
45490;SDS011;31237;45.586;13.782;2023-12-20T06:28:49;6.28;;;3.53;;
45490;SDS011;31237;45.586;13.782;2023-12-20T06:31:15;5.63;;;3.42;;
45490;SDS011;31237;45.586;13.782;2023-12-20T06:33:41;6.88;;;3.65;;
45490;SDS011;31237;45.586;13.782;2023-12-20T06:36:10;5.82;;;3.47;;
45490;SDS011;31237;45.586;13.782;2023-12-20T06:38:37;8.48;;;4.05;;
45490;SDS011;31237;45.586;13.782;2023-12-20T06:41:02;6.90;;;3.90;;
45490;SDS011;31237;45.586;13.782;2023-12-20T06:43:28;5.65;;;3.80;;
45490;SDS011;31237;45.586;13.782;2023-12-20T06:45:55;8.55;;;4.43;;
45490;SDS011;31237;45.586;13.782;2023-12-20T06:48:21;8.18;;;4.28;;
45490;SDS011;31237;45.586;13.782;2023-12-20T06:50:46;7.78;;;5.05;;
45490;SDS011;31237;45.586;13.782;2023-12-20T06:53:12;7.82;;;4.55;;
45490;SDS011;31237;45.586;13.782;2023-12-20T06:55:38;9.65;;;5.20;;
45490;SDS011;31237;45.586;13.782;2023-12-20T06:58:03;7.22;;;4.97;;
45490;SDS011;31237;45.586;13.782;2023-12-20T07:00:30;9.07;;;4.65;;
45490;SDS011;31237;45.586;13.782;2023-12-20T07:02:56;7.78;;;4.60;;
45490;SDS011;31237;45.586;13.782;2023-12-20T07:05:21;6.10;;;3.78;;
45490;SDS011;31237;45.586;13.782;2023-12-20T07:07:47;6.32;;;3.90;;
45490;SDS011;31237;45.586;13.782;2023-12-20T07:10:13;5.68;;;3.90;;
45490;SDS011;31237;45.586;13.782;2023-12-20T07:12:39;5.03;;;3.38;;
45490;SDS011;31237;45.586;13.782;2023-12-20T07:15:05;7.75;;;3.05;;
45490;SDS011;31237;45.586;13.782;2023-12-20T07:17:32;7.95;;;3.13;;
45490;SDS011;31237;45.586;13.782;2023-12-20T07:19:58;5.75;;;3.10;;
45490;SDS011;31237;45.586;13.782;2023-12-20T07:22:28;3.67;;;2.47;;
45490;SDS011;31237;45.586;13.782;2023-12-20T07:24:56;5.82;;;2.75;;
45490;SDS011;31237;45.586;13.782;2023-12-20T07:27:23;4.50;;;2.22;;
45490;SDS011;31237;45.586;13.782;2023-12-20T07:29:48;4.03;;;2.35;;
45490;SDS011;31237;45.586;13.782;2023-12-20T07:32:14;3.90;;;2.42;;
45490;SDS011;31237;45.586;13.782;2023-12-20T07:34:40;3.45;;;2.30;;
45490;SDS011;31237;45.586;13.782;2023-12-20T07:37:05;3.95;;;2.40;;
45490;SDS011;31237;45.586;13.782;2023-12-20T07:39:31;4.60;;;2.38;;
45490;SDS011;31237;45.586;13.782;2023-12-20T07:41:57;4.65;;;2.50;;
45490;SDS011;31237;45.586;13.782;2023-12-20T07:44:23;4.50;;;2.20;;
45490;SDS011;31237;45.586;13.782;2023-12-20T07:46:48;4.47;;;2.60;;
45490;SDS011;31237;45.586;13.782;2023-12-20T07:49:15;4.47;;;2.58;;
45490;SDS011;31237;45.586;13.782;2023-12-20T07:51:40;4.18;;;2.47;;
45490;SDS011;31237;45.586;13.782;2023-12-20T07:54:06;4.50;;;2.60;;
45490;SDS011;31237;45.586;13.782;2023-12-20T07:56:33;4.60;;;2.65;;
45490;SDS011;31237;45.586;13.782;2023-12-20T07:58:58;3.90;;;2.28;;
45490;SDS011;31237;45.586;13.782;2023-12-20T08:01:24;6.53;;;2.58;;
45490;SDS011;31237;45.586;13.782;2023-12-20T08:03:50;4.22;;;2.40;;
45490;SDS011;31237;45.586;13.782;2023-12-20T08:06:16;4.90;;;2.60;;
45490;SDS011;31237;45.586;13.782;2023-12-20T08:08:42;4.43;;;2.25;;
45490;SDS011;31237;45.586;13.782;2023-12-20T08:11:08;4.32;;;2.70;;
45490;SDS011;31237;45.586;13.782;2023-12-20T08:13:34;3.83;;;2.17;;
45490;SDS011;31237;45.586;13.782;2023-12-20T08:15:59;3.67;;;2.30;;
45490;SDS011;31237;45.586;13.782;2023-12-20T08:18:27;3.90;;;2.28;;
45490;SDS011;31237;45.586;13.782;2023-12-20T08:20:53;4.15;;;2.20;;
45490;SDS011;31237;45.586;13.782;2023-12-20T08:23:19;4.22;;;2.30;;
45490;SDS011;31237;45.586;13.782;2023-12-20T08:25:46;4.40;;;2.53;;
45490;SDS011;31237;45.586;13.782;2023-12-20T08:28:12;5.72;;;2.70;;
45490;SDS011;31237;45.586;13.782;2023-12-20T08:30:37;4.57;;;2.65;;
45490;SDS011;31237;45.586;13.782;2023-12-20T08:33:03;5.13;;;3.00;;
45490;SDS011;31237;45.586;13.782;2023-12-20T08:35:29;4.47;;;2.80;;
45490;SDS011;31237;45.586;13.782;2023-12-20T08:37:55;5.15;;;2.75;;
45490;SDS011;31237;45.586;13.782;2023-12-20T08:40:21;5.60;;;2.88;;
45490;SDS011;31237;45.586;13.782;2023-12-20T08:42:47;5.20;;;2.88;;
45490;SDS011;31237;45.586;13.782;2023-12-20T08:45:13;5.07;;;3.08;;
45490;SDS011;31237;45.586;13.782;2023-12-20T08:47:38;3.90;;;2.53;;
45490;SDS011;31237;45.586;13.782;2023-12-20T08:50:06;4.55;;;2.70;;
45490;SDS011;31237;45.586;13.782;2023-12-20T08:52:32;5.05;;;2.72;;
45490;SDS011;31237;45.586;13.782;2023-12-20T08:54:58;5.50;;;3.22;;
45490;SDS011;31237;45.586;13.782;2023-12-20T08:57:24;5.25;;;2.70;;
45490;SDS011;31237;45.586;13.782;2023-12-20T08:59:50;7.40;;;3.08;;
45490;SDS011;31237;45.586;13.782;2023-12-20T09:02:16;4.55;;;2.83;;
45490;SDS011;31237;45.586;13.782;2023-12-20T09:04:42;4.15;;;2.63;;
45490;SDS011;31237;45.586;13.782;2023-12-20T09:07:20;5.32;;;2.70;;
45490;SDS011;31237;45.586;13.782;2023-12-20T09:09:47;4.45;;;2.40;;
45490;SDS011;31237;45.586;13.782;2023-12-20T09:12:13;4.28;;;2.45;;
45490;SDS011;31237;45.586;13.782;2023-12-20T09:14:38;4.50;;;2.45;;
45490;SDS011;31237;45.586;13.782;2023-12-20T09:17:04;4.68;;;2.88;;
45490;SDS011;31237;45.586;13.782;2023-12-20T09:19:30;5.95;;;2.47;;
45490;SDS011;31237;45.586;13.782;2023-12-20T09:21:55;4.03;;;2.33;;
45490;SDS011;31237;45.586;13.782;2023-12-20T09:24:21;5.43;;;2.90;;
45490;SDS011;31237;45.586;13.782;2023-12-20T09:26:47;4.18;;;2.72;;
45490;SDS011;31237;45.586;13.782;2023-12-20T09:29:12;4.00;;;2.40;;
45490;SDS011;31237;45.586;13.782;2023-12-20T09:31:40;6.53;;;2.90;;
45490;SDS011;31237;45.586;13.782;2023-12-20T09:34:08;4.10;;;2.40;;
45490;SDS011;31237;45.586;13.782;2023-12-20T09:36:34;4.60;;;2.85;;
45490;SDS011;31237;45.586;13.782;2023-12-20T09:39:01;5.40;;;2.83;;
45490;SDS011;31237;45.586;13.782;2023-12-20T09:41:28;5.43;;;2.78;;
45490;SDS011;31237;45.586;13.782;2023-12-20T09:43:58;5.00;;;2.25;;
45490;SDS011;31237;45.586;13.782;2023-12-20T09:46:27;3.30;;;2.30;;
45490;SDS011;31237;45.586;13.782;2023-12-20T09:48:58;4.65;;;2.10;;
45490;SDS011;31237;45.586;13.782;2023-12-20T09:51:26;5.40;;;2.53;;
45490;SDS011;31237;45.586;13.782;2023-12-20T09:53:54;4.65;;;2.47;;
45490;SDS011;31237;45.586;13.782;2023-12-20T09:56:21;4.00;;;2.53;;
45490;SDS011;31237;45.586;13.782;2023-12-20T09:58:47;7.85;;;3.03;;
45490;SDS011;31237;45.586;13.782;2023-12-20T10:01:13;7.57;;;3.20;;
45490;SDS011;31237;45.586;13.782;2023-12-20T10:03:41;4.55;;;2.55;;
45490;SDS011;31237;45.586;13.782;2023-12-20T10:06:07;4.60;;;2.83;;
45490;SDS011;31237;45.586;13.782;2023-12-20T10:08:33;4.90;;;2.88;;
45490;SDS011;31237;45.586;13.782;2023-12-20T10:10:59;4.22;;;2.75;;
45490;SDS011;31237;45.586;13.782;2023-12-20T10:13:27;4.38;;;2.60;;
45490;SDS011;31237;45.586;13.782;2023-12-20T10:15:54;4.60;;;2.70;;
45490;SDS011;31237;45.586;13.782;2023-12-20T10:18:21;5.30;;;2.95;;
45490;SDS011;31237;45.586;13.782;2023-12-20T10:20:47;4.53;;;2.97;;
45490;SDS011;31237;45.586;13.782;2023-12-20T10:23:13;8.27;;;3.30;;
45490;SDS011;31237;45.586;13.782;2023-12-20T10:25:41;5.13;;;2.97;;
45490;SDS011;31237;45.586;13.782;2023-12-20T10:28:11;6.28;;;3.45;;
45490;SDS011;31237;45.586;13.782;2023-12-20T10:30:37;6.75;;;3.40;;
45490;SDS011;31237;45.586;13.782;2023-12-20T10:33:05;5.88;;;3.13;;
45490;SDS011;31237;45.586;13.782;2023-12-20T10:35:32;7.47;;;3.38;;
45490;SDS011;31237;45.586;13.782;2023-12-20T10:37:57;5.32;;;3.10;;
45490;SDS011;31237;45.586;13.782;2023-12-20T10:40:28;8.80;;;3.53;;
45490;SDS011;31237;45.586;13.782;2023-12-20T10:42:55;10.50;;;5.40;;
45490;SDS011;31237;45.586;13.782;2023-12-20T10:45:23;8.90;;;3.83;;
45490;SDS011;31237;45.586;13.782;2023-12-20T10:47:49;6.90;;;3.40;;
45490;SDS011;31237;45.586;13.782;2023-12-20T10:50:15;11.75;;;3.85;;
45490;SDS011;31237;45.586;13.782;2023-12-20T10:52:43;6.93;;;3.88;;
45490;SDS011;31237;45.586;13.782;2023-12-20T10:55:10;5.28;;;3.42;;
45490;SDS011;31237;45.586;13.782;2023-12-20T10:57:36;7.55;;;3.50;;
45490;SDS011;31237;45.586;13.782;2023-12-20T11:00:02;4.95;;;3.10;;
45490;SDS011;31237;45.586;13.782;2023-12-20T11:02:29;4.50;;;3.08;;
45490;SDS011;31237;45.586;13.782;2023-12-20T11:07:37;4.82;;;3.17;;
45490;SDS011;31237;45.586;13.782;2023-12-20T11:10:25;6.35;;;3.33;;
45490;SDS011;31237;45.586;13.782;2023-12-20T11:15:34;7.22;;;4.00;;
45490;SDS011;31237;45.586;13.782;2023-12-20T11:18:03;6.70;;;3.08;;
45490;SDS011;31237;45.586;13.782;2023-12-20T11:20:37;9.98;;;3.58;;
45490;SDS011;31237;45.586;13.782;2023-12-20T11:23:04;8.50;;;4.50;;
45490;SDS011;31237;45.586;13.782;2023-12-20T11:25:38;7.45;;;4.80;;
45490;SDS011;31237;45.586;13.782;2023-12-20T11:28:16;7.25;;;4.60;;
45490;SDS011;31237;45.586;13.782;2023-12-20T11:30:47;7.70;;;5.30;;
45490;SDS011;31237;45.586;13.782;2023-12-20T11:33:15;9.10;;;5.57;;
45490;SDS011;31237;45.586;13.782;2023-12-20T11:35:42;9.18;;;5.85;;
45490;SDS011;31237;45.586;13.782;2023-12-20T11:38:10;9.80;;;5.95;;
45490;SDS011;31237;45.586;13.782;2023-12-20T11:40:36;8.73;;;6.10;;
45490;SDS011;31237;45.586;13.782;2023-12-20T11:43:02;7.90;;;4.63;;
45490;SDS011;31237;45.586;13.782;2023-12-20T11:45:29;8.35;;;4.90;;
45490;SDS011;31237;45.586;13.782;2023-12-20T11:47:56;7.60;;;4.90;;
45490;SDS011;31237;45.586;13.782;2023-12-20T11:50:22;8.18;;;4.43;;
45490;SDS011;31237;45.586;13.782;2023-12-20T11:52:49;6.75;;;3.78;;
45490;SDS011;31237;45.586;13.782;2023-12-20T11:55:16;8.18;;;4.22;;
45490;SDS011;31237;45.586;13.782;2023-12-20T11:57:43;7.28;;;3.55;;
45490;SDS011;31237;45.586;13.782;2023-12-20T12:00:10;7.72;;;3.10;;
45490;SDS011;31237;45.586;13.782;2023-12-20T12:02:36;7.05;;;3.13;;
45490;SDS011;31237;45.586;13.782;2023-12-20T12:05:02;4.93;;;3.08;;
45490;SDS011;31237;45.586;13.782;2023-12-20T12:07:30;4.68;;;3.35;;
45490;SDS011;31237;45.586;13.782;2023-12-20T12:09:57;6.75;;;3.30;;
45490;SDS011;31237;45.586;13.782;2023-12-20T12:12:23;8.32;;;3.72;;
45490;SDS011;31237;45.586;13.782;2023-12-20T12:14:50;5.28;;;3.85;;
45490;SDS011;31237;45.586;13.782;2023-12-20T12:17:16;4.63;;;3.35;;
45490;SDS011;31237;45.586;13.782;2023-12-20T12:19:42;6.63;;;3.58;;
45490;SDS011;31237;45.586;13.782;2023-12-20T12:22:18;6.30;;;4.00;;
45490;SDS011;31237;45.586;13.782;2023-12-20T12:24:45;9.38;;;3.75;;
45490;SDS011;31237;45.586;13.782;2023-12-20T12:27:12;5.20;;;3.35;;
45490;SDS011;31237;45.586;13.782;2023-12-20T12:29:38;4.97;;;3.63;;
45490;SDS011;31237;45.586;13.782;2023-12-20T12:32:05;6.20;;;4.60;;
45490;SDS011;31237;45.586;13.782;2023-12-20T12:34:32;6.53;;;4.25;;
45490;SDS011;31237;45.586;13.782;2023-12-20T12:37:02;7.85;;;3.70;;
45490;SDS011;31237;45.586;13.782;2023-12-20T12:39:29;7.53;;;4.82;;
45490;SDS011;31237;45.586;13.782;2023-12-20T12:41:55;5.72;;;4.07;;
45490;SDS011;31237;45.586;13.782;2023-12-20T12:44:22;9.27;;;4.10;;
45490;SDS011;31237;45.586;13.782;2023-12-20T12:46:50;8.15;;;4.55;;
45490;SDS011;31237;45.586;13.782;2023-12-20T12:49:16;10.30;;;4.57;;
45490;SDS011;31237;45.586;13.782;2023-12-20T12:51:42;7.60;;;4.63;;
45490;SDS011;31237;45.586;13.782;2023-12-20T12:54:09;7.30;;;4.53;;
45490;SDS011;31237;45.586;13.782;2023-12-20T12:56:35;6.35;;;4.30;;
45490;SDS011;31237;45.586;13.782;2023-12-20T12:59:01;6.50;;;4.15;;
45490;SDS011;31237;45.586;13.782;2023-12-20T13:01:27;6.93;;;4.13;;
45490;SDS011;31237;45.586;13.782;2023-12-20T13:03:53;7.32;;;3.83;;
45490;SDS011;31237;45.586;13.782;2023-12-20T13:06:20;7.63;;;4.10;;
45490;SDS011;31237;45.586;13.782;2023-12-20T13:08:45;6.13;;;3.85;;
45490;SDS011;31237;45.586;13.782;2023-12-20T13:11:11;5.70;;;4.00;;
45490;SDS011;31237;45.586;13.782;2023-12-20T13:13:37;6.35;;;4.10;;
45490;SDS011;31237;45.586;13.782;2023-12-20T13:16:02;5.53;;;3.92;;
45490;SDS011;31237;45.586;13.782;2023-12-20T13:18:29;5.93;;;3.63;;
45490;SDS011;31237;45.586;13.782;2023-12-20T13:20:54;6.85;;;3.58;;
45490;SDS011;31237;45.586;13.782;2023-12-20T13:23:20;5.85;;;3.35;;
45490;SDS011;31237;45.586;13.782;2023-12-20T13:25:46;4.95;;;3.70;;
45490;SDS011;31237;45.586;13.782;2023-12-20T13:28:12;5.82;;;3.85;;
45490;SDS011;31237;45.586;13.782;2023-12-20T13:30:38;7.15;;;3.60;;
45490;SDS011;31237;45.586;13.782;2023-12-20T13:33:04;7.63;;;3.58;;
45490;SDS011;31237;45.586;13.782;2023-12-20T13:35:30;4.80;;;3.10;;
45490;SDS011;31237;45.586;13.782;2023-12-20T13:37:57;8.10;;;3.40;;
45490;SDS011;31237;45.586;13.782;2023-12-20T13:40:23;6.45;;;3.70;;
45490;SDS011;31237;45.586;13.782;2023-12-20T13:42:49;5.35;;;3.65;;
45490;SDS011;31237;45.586;13.782;2023-12-20T13:45:15;5.72;;;3.50;;
45490;SDS011;31237;45.586;13.782;2023-12-20T13:47:41;5.50;;;3.45;;
45490;SDS011;31237;45.586;13.782;2023-12-20T13:50:06;7.20;;;3.70;;
45490;SDS011;31237;45.586;13.782;2023-12-20T13:52:32;5.07;;;3.22;;
45490;SDS011;31237;45.586;13.782;2023-12-20T13:54:58;5.22;;;3.70;;
45490;SDS011;31237;45.586;13.782;2023-12-20T13:57:24;11.98;;;3.80;;
45490;SDS011;31237;45.586;13.782;2023-12-20T13:59:50;5.97;;;3.47;;
45490;SDS011;31237;45.586;13.782;2023-12-20T14:02:16;6.18;;;3.45;;
45490;SDS011;31237;45.586;13.782;2023-12-20T14:04:42;6.15;;;3.90;;
45490;SDS011;31237;45.586;13.782;2023-12-20T14:07:08;4.50;;;3.40;;
45490;SDS011;31237;45.586;13.782;2023-12-20T14:09:35;4.85;;;3.50;;
45490;SDS011;31237;45.586;13.782;2023-12-20T14:12:00;7.20;;;4.18;;
45490;SDS011;31237;45.586;13.782;2023-12-20T14:14:26;5.47;;;3.58;;
45490;SDS011;31237;45.586;13.782;2023-12-20T14:16:52;6.40;;;4.25;;
45490;SDS011;31237;45.586;13.782;2023-12-20T14:19:18;6.30;;;4.07;;
45490;SDS011;31237;45.586;13.782;2023-12-20T14:21:43;7.45;;;4.35;;
45490;SDS011;31237;45.586;13.782;2023-12-20T14:24:11;7.00;;;4.45;;
45490;SDS011;31237;45.586;13.782;2023-12-20T14:26:40;6.30;;;4.03;;
45490;SDS011;31237;45.586;13.782;2023-12-20T14:29:07;7.18;;;4.57;;
45490;SDS011;31237;45.586;13.782;2023-12-20T14:31:33;8.65;;;4.50;;
45490;SDS011;31237;45.586;13.782;2023-12-20T14:33:59;5.00;;;3.78;;